createdAt,value
2018-07-24T00:00:16.571Z,22.2
2018-07-24T00:01:16.663Z,22.2
2018-07-24T00:02:16.695Z,22.2
2018-07-24T00:03:16.603Z,22.2
2018-07-24T00:04:16.443Z,22.2
2018-07-24T00:05:16.636Z,22.2
2018-07-24T00:06:16.560Z,22.2
2018-07-24T00:07:16.740Z,22.2
2018-07-24T00:08:16.508Z,22.19
2018-07-24T00:09:16.612Z,22.2
2018-07-24T00:10:16.662Z,22.19
2018-07-24T00:11:16.766Z,22.19
2018-07-24T00:12:16.770Z,22.19
2018-07-24T00:13:16.797Z,22.19
2018-07-24T00:14:16.648Z,22.2
2018-07-24T00:15:16.566Z,22.19
2018-07-24T00:16:16.940Z,22.19
2018-07-24T00:17:16.591Z,22.19
2018-07-24T00:18:16.647Z,22.19
2018-07-24T00:19:16.681Z,22.19
2018-07-24T00:20:16.798Z,22.18
2018-07-24T00:21:16.659Z,22.18
2018-07-24T00:22:16.824Z,22.18
2018-07-24T00:23:16.830Z,22.18
2018-07-24T00:24:16.518Z,22.18
2018-07-24T00:25:16.636Z,22.18
2018-07-24T00:26:16.784Z,22.19
2018-07-24T00:27:16.623Z,22.18
2018-07-24T00:28:16.614Z,22.18
2018-07-24T00:29:16.607Z,22.18
2018-07-24T00:30:16.617Z,22.18
2018-07-24T00:31:16.744Z,22.18
2018-07-24T00:32:17.522Z,22.18
2018-07-24T00:33:16.498Z,22.18
2018-07-24T00:34:16.593Z,22.18
2018-07-24T00:35:16.600Z,22.18
2018-07-24T00:36:16.594Z,22.18
2018-07-24T00:37:16.541Z,22.18
2018-07-24T00:38:16.731Z,22.18
2018-07-24T00:39:16.544Z,22.18
2018-07-24T00:40:16.585Z,22.18
2018-07-24T00:41:16.544Z,22.18
2018-07-24T00:42:16.678Z,22.18
2018-07-24T00:43:16.669Z,22.18
2018-07-24T00:44:16.698Z,22.18
2018-07-24T00:45:16.604Z,22.18
2018-07-24T00:46:17.377Z,22.18
2018-07-24T00:47:16.835Z,22.18
2018-07-24T00:48:16.713Z,22.18
2018-07-24T00:49:16.681Z,22.18
2018-07-24T00:50:16.790Z,22.17
2018-07-24T00:51:16.665Z,22.17
2018-07-24T00:52:16.697Z,22.17
2018-07-24T00:53:16.574Z,22.17
2018-07-24T00:54:17.485Z,22.17
2018-07-24T00:55:16.641Z,22.17
2018-07-24T00:56:16.679Z,22.17
2018-07-24T00:57:16.748Z,22.17
2018-07-24T00:58:16.683Z,22.17
2018-07-24T00:59:16.645Z,22.17
2018-07-24T01:00:16.670Z,22.17
2018-07-24T01:01:47.054Z,22.17
2018-07-24T01:02:16.658Z,22.17
2018-07-24T01:03:16.714Z,22.16
2018-07-24T01:04:16.712Z,22.16
2018-07-24T01:05:17.037Z,22.17
2018-07-24T01:06:16.823Z,22.16
2018-07-24T01:07:16.677Z,22.16
2018-07-24T01:08:16.726Z,22.17
2018-07-24T01:09:16.570Z,22.16
2018-07-24T01:10:16.736Z,22.16
2018-07-24T01:11:16.694Z,22.16
2018-07-24T01:12:16.629Z,22.16
2018-07-24T01:13:16.784Z,22.16
2018-07-24T01:14:16.532Z,22.16
2018-07-24T01:15:16.681Z,22.16
2018-07-24T01:16:16.693Z,22.16
2018-07-24T01:17:16.422Z,22.16
2018-07-24T01:18:16.851Z,22.16
2018-07-24T01:19:16.533Z,22.15
2018-07-24T01:20:16.642Z,22.16
2018-07-24T01:21:16.608Z,22.16
2018-07-24T01:22:16.633Z,22.16
2018-07-24T01:23:16.511Z,22.16
2018-07-24T01:24:16.678Z,22.15
2018-07-24T01:25:16.667Z,22.16
2018-07-24T01:26:16.629Z,22.15
2018-07-24T01:27:16.621Z,22.15
2018-07-24T01:28:16.489Z,22.16
2018-07-24T01:29:16.615Z,22.15
2018-07-24T01:30:16.747Z,22.15
2018-07-24T01:31:16.415Z,22.15
2018-07-24T01:32:16.594Z,22.15
2018-07-24T01:33:16.676Z,22.15
2018-07-24T01:34:16.723Z,22.15
2018-07-24T01:35:17.038Z,22.15
2018-07-24T01:36:16.726Z,22.15
2018-07-24T01:37:16.671Z,22.14
2018-07-24T01:38:16.731Z,22.15
2018-07-24T01:39:16.607Z,22.15
2018-07-24T01:40:16.695Z,22.15
2018-07-24T01:41:16.597Z,22.15
2018-07-24T01:42:16.569Z,22.14
2018-07-24T01:43:16.629Z,22.14
2018-07-24T01:44:16.649Z,22.14
2018-07-24T01:45:16.645Z,22.14
2018-07-24T01:46:16.884Z,22.14
2018-07-24T01:47:16.735Z,22.14
2018-07-24T01:48:16.654Z,22.14
2018-07-24T01:49:16.625Z,22.14
2018-07-24T01:50:16.566Z,22.14
2018-07-24T01:51:16.602Z,22.14
2018-07-24T01:52:16.465Z,22.14
2018-07-24T01:53:16.604Z,22.14
2018-07-24T01:54:18.268Z,22.14
2018-07-24T01:55:16.481Z,22.14
2018-07-24T01:56:16.670Z,22.14
2018-07-24T01:57:16.571Z,22.14
2018-07-24T01:58:16.726Z,22.14
2018-07-24T01:59:16.793Z,22.14
2018-07-24T02:00:16.822Z,22.14
2018-07-24T02:01:16.677Z,22.14
2018-07-24T02:02:16.646Z,22.14
2018-07-24T02:03:16.775Z,22.13
2018-07-24T02:04:16.640Z,22.14
2018-07-24T02:05:16.660Z,22.13
2018-07-24T02:06:16.746Z,22.13
2018-07-24T02:07:16.586Z,22.14
2018-07-24T02:08:16.724Z,22.13
2018-07-24T02:09:16.544Z,22.13
2018-07-24T02:10:16.676Z,22.13
2018-07-24T02:11:16.990Z,22.13
2018-07-24T02:12:16.656Z,22.13
2018-07-24T02:13:16.707Z,22.13
2018-07-24T02:14:16.646Z,22.13
2018-07-24T02:15:16.770Z,22.13
2018-07-24T02:16:16.707Z,22.13
2018-07-24T02:17:16.703Z,22.13
2018-07-24T02:18:18.685Z,22.13
2018-07-24T02:19:16.710Z,22.12
2018-07-24T02:20:16.726Z,22.12
2018-07-24T02:21:16.532Z,22.12
2018-07-24T02:22:16.687Z,22.13
2018-07-24T02:23:16.732Z,22.12
2018-07-24T02:24:16.708Z,22.12
2018-07-24T02:25:16.684Z,22.12
2018-07-24T02:26:26.814Z,22.13
2018-07-24T02:27:16.765Z,22.12
2018-07-24T02:28:16.680Z,22.12
2018-07-24T02:29:16.723Z,22.12
2018-07-24T02:30:16.666Z,22.12
2018-07-24T02:31:16.609Z,22.12
2018-07-24T02:32:16.614Z,22.12
2018-07-24T02:33:16.598Z,22.12
2018-07-24T02:34:16.596Z,22.12
2018-07-24T02:35:16.891Z,22.12
2018-07-24T02:36:16.734Z,22.12
2018-07-24T02:37:16.731Z,22.12
2018-07-24T02:38:16.622Z,22.12
2018-07-24T02:39:16.631Z,22.12
2018-07-24T02:40:16.749Z,22.12
2018-07-24T02:41:16.721Z,22.12
2018-07-24T02:42:16.780Z,22.12
2018-07-24T02:43:16.785Z,22.12
2018-07-24T02:44:16.712Z,22.12
2018-07-24T02:45:16.707Z,22.12
2018-07-24T02:46:17.079Z,22.12
2018-07-24T02:47:16.767Z,22.12
2018-07-24T02:48:16.702Z,22.12
2018-07-24T02:49:16.745Z,22.12
2018-07-24T02:50:16.602Z,22.12
2018-07-24T02:51:16.648Z,22.11
2018-07-24T02:52:16.511Z,22.12
2018-07-24T02:53:16.511Z,22.12
2018-07-24T02:54:16.456Z,22.12
2018-07-24T02:55:16.506Z,22.12
2018-07-24T02:56:16.611Z,22.12
2018-07-24T02:57:16.517Z,22.12
2018-07-24T02:58:16.594Z,22.12
2018-07-24T02:59:16.583Z,22.12
2018-07-24T03:00:16.623Z,22.11
2018-07-24T03:01:16.567Z,22.12
2018-07-24T03:02:16.701Z,22.12
2018-07-24T03:03:16.566Z,22.12
2018-07-24T03:04:16.670Z,22.11
2018-07-24T03:05:16.755Z,22.11
2018-07-24T03:06:16.569Z,22.11
2018-07-24T03:07:16.733Z,22.11
2018-07-24T03:08:16.545Z,22.11
2018-07-24T03:09:16.947Z,22.11
2018-07-24T03:10:16.766Z,22.11
2018-07-24T03:11:16.599Z,22.11
2018-07-24T03:12:16.786Z,22.11
2018-07-24T03:13:16.619Z,22.11
2018-07-24T03:14:16.826Z,22.11
2018-07-24T03:15:16.614Z,22.11
2018-07-24T03:16:17.421Z,22.11
2018-07-24T03:17:16.641Z,22.11
2018-07-24T03:18:16.646Z,22.11
2018-07-24T03:19:16.507Z,22.11
2018-07-24T03:20:16.812Z,22.1
2018-07-24T03:21:16.764Z,22.1
2018-07-24T03:22:16.759Z,22.1
2018-07-24T03:23:16.802Z,22.1
2018-07-24T03:24:16.664Z,22.1
2018-07-24T03:25:16.842Z,22.1
2018-07-24T03:26:16.680Z,22.1
2018-07-24T03:27:16.750Z,22.1
2018-07-24T03:28:17.109Z,22.1
2018-07-24T03:29:16.753Z,22.1
2018-07-24T03:30:16.497Z,22.1
2018-07-24T03:31:16.601Z,22.1
2018-07-24T03:32:16.866Z,22.1
2018-07-24T03:33:16.672Z,22.1
2018-07-24T03:34:16.896Z,22.1
2018-07-24T03:35:16.635Z,22.1
2018-07-24T03:36:17.020Z,22.1
2018-07-24T03:37:16.738Z,22.09
2018-07-24T03:38:16.483Z,22.1
2018-07-24T03:39:16.738Z,22.09
2018-07-24T03:40:16.663Z,22.09
2018-07-24T03:41:16.768Z,22.09
2018-07-24T03:42:16.933Z,22.09
2018-07-24T03:43:16.936Z,22.09
2018-07-24T03:44:16.790Z,22.09
2018-07-24T03:45:16.765Z,22.09
2018-07-24T03:46:16.614Z,22.1
2018-07-24T03:47:16.823Z,22.09
2018-07-24T03:48:16.606Z,22.09
2018-07-24T03:49:16.832Z,22.09
2018-07-24T03:50:16.791Z,22.09
2018-07-24T03:51:16.673Z,22.09
2018-07-24T03:52:16.700Z,22.09
2018-07-24T03:53:16.663Z,22.08
2018-07-24T03:54:16.801Z,22.09
2018-07-24T03:55:17.435Z,22.09
2018-07-24T03:56:17.183Z,22.09
2018-07-24T03:57:16.610Z,22.09
2018-07-24T03:58:16.663Z,22.09
2018-07-24T03:59:16.627Z,22.08
2018-07-24T04:00:16.659Z,22.08
2018-07-24T04:01:16.775Z,22.09
2018-07-24T04:02:16.851Z,22.09
2018-07-24T04:03:16.724Z,22.08
2018-07-24T04:04:16.704Z,22.08
2018-07-24T04:05:16.490Z,22.08
2018-07-24T04:06:16.596Z,22.08
2018-07-24T04:07:16.459Z,22.08
2018-07-24T04:08:16.517Z,22.08
2018-07-24T04:09:16.701Z,22.08
2018-07-24T04:10:16.454Z,22.08
2018-07-24T04:11:16.402Z,22.08
2018-07-24T04:12:16.603Z,22.08
2018-07-24T04:13:16.599Z,22.08
2018-07-24T04:14:16.257Z,22.08
2018-07-24T04:15:16.653Z,22.08
2018-07-24T04:16:16.639Z,22.08
2018-07-24T04:17:16.788Z,22.08
2018-07-24T04:18:16.665Z,22.08
2018-07-24T04:19:16.624Z,22.08
2018-07-24T04:20:16.620Z,22.08
2018-07-24T04:21:16.724Z,22.08
2018-07-24T04:22:16.715Z,22.07
2018-07-24T04:23:16.404Z,22.07
2018-07-24T04:24:16.725Z,22.08
2018-07-24T04:25:16.660Z,22.08
2018-07-24T04:26:16.433Z,22.07
2018-07-24T04:27:16.719Z,22.08
2018-07-24T04:28:16.624Z,22.07
2018-07-24T04:29:18.024Z,22.07
2018-07-24T04:30:16.749Z,22.07
2018-07-24T04:31:17.127Z,22.07
2018-07-24T04:32:16.447Z,22.07
2018-07-24T04:33:16.651Z,22.07
2018-07-24T04:34:16.657Z,22.07
2018-07-24T04:35:16.818Z,22.07
2018-07-24T04:36:16.923Z,22.07
2018-07-24T04:37:16.684Z,22.07
2018-07-24T04:38:16.599Z,22.07
2018-07-24T04:39:16.635Z,22.07
2018-07-24T04:40:17.843Z,22.07
2018-07-24T04:41:16.521Z,22.07
2018-07-24T04:42:16.754Z,22.06
2018-07-24T04:43:16.777Z,22.07
2018-07-24T04:44:16.560Z,22.07
2018-07-24T04:45:16.723Z,22.06
2018-07-24T04:46:16.772Z,22.06
2018-07-24T04:47:16.661Z,22.06
2018-07-24T04:48:16.658Z,22.06
2018-07-24T04:49:16.630Z,22.06
2018-07-24T04:50:16.446Z,22.06
2018-07-24T04:51:16.726Z,22.06
2018-07-24T04:52:16.766Z,22.06
2018-07-24T04:53:16.432Z,22.06
2018-07-24T04:54:16.631Z,22.06
2018-07-24T04:55:16.738Z,22.06
2018-07-24T04:56:16.733Z,22.06
2018-07-24T04:57:16.737Z,22.06
2018-07-24T04:58:16.655Z,22.06
2018-07-24T04:59:16.483Z,22.06
2018-07-24T05:00:16.730Z,22.06
2018-07-24T05:01:16.884Z,22.06
2018-07-24T05:02:16.708Z,22.06
2018-07-24T05:03:17.545Z,22.06
2018-07-24T05:04:16.821Z,22.06
2018-07-24T05:05:16.732Z,22.06
2018-07-24T05:06:16.751Z,22.06
2018-07-24T05:07:16.370Z,22.06
2018-07-24T05:08:16.423Z,22.06
2018-07-24T05:09:16.773Z,22.06
2018-07-24T05:10:16.691Z,22.06
2018-07-24T05:11:16.446Z,22.06
2018-07-24T05:12:16.727Z,22.06
2018-07-24T05:13:16.841Z,22.06
2018-07-24T05:14:16.639Z,22.06
2018-07-24T05:15:16.656Z,22.06
2018-07-24T05:16:16.430Z,22.06
2018-07-24T05:17:16.372Z,22.06
2018-07-24T05:18:16.637Z,22.06
2018-07-24T05:19:16.593Z,22.06
2018-07-24T05:20:16.677Z,22.06
2018-07-24T05:21:16.638Z,22.06
2018-07-24T05:22:16.744Z,22.06
2018-07-24T05:23:16.520Z,22.06
2018-07-24T05:24:16.651Z,22.06
2018-07-24T05:25:16.619Z,22.06
2018-07-24T05:26:16.558Z,22.06
2018-07-24T05:27:16.712Z,22.06
2018-07-24T05:28:16.563Z,22.06
2018-07-24T05:29:16.710Z,22.06
2018-07-24T05:30:16.595Z,22.06
2018-07-24T05:31:16.747Z,22.05
2018-07-24T05:32:16.718Z,22.06
2018-07-24T05:33:17.443Z,22.06
2018-07-24T05:34:16.601Z,22.06
2018-07-24T05:35:16.230Z,22.06
2018-07-24T05:36:16.926Z,22.06
2018-07-24T05:37:16.793Z,22.06
2018-07-24T05:38:16.611Z,22.06
2018-07-24T05:39:16.490Z,22.06
2018-07-24T05:40:16.755Z,22.06
2018-07-24T05:41:16.608Z,22.06
2018-07-24T05:42:16.674Z,22.06
2018-07-24T05:43:16.615Z,22.06
2018-07-24T05:44:16.440Z,22.06
2018-07-24T05:45:16.557Z,22.06
2018-07-24T05:46:16.667Z,22.06
2018-07-24T05:47:16.454Z,22.06
2018-07-24T05:48:16.768Z,22.06
2018-07-24T05:49:16.661Z,22.06
2018-07-24T05:50:16.691Z,22.06
2018-07-24T05:51:16.526Z,22.06
2018-07-24T05:52:16.624Z,22.06
2018-07-24T05:53:16.397Z,22.06
2018-07-24T05:54:16.427Z,22.06
2018-07-24T05:55:16.658Z,22.06
2018-07-24T05:56:16.807Z,22.06
2018-07-24T05:57:16.769Z,22.06
2018-07-24T05:58:16.865Z,22.06
2018-07-24T05:59:16.594Z,22.06
2018-07-24T06:00:16.768Z,22.06
2018-07-24T06:01:16.749Z,22.06
2018-07-24T06:02:16.455Z,22.06
2018-07-24T06:03:16.840Z,22.06
2018-07-24T06:04:16.429Z,22.06
2018-07-24T06:05:16.664Z,22.06
2018-07-24T06:06:16.697Z,22.06
2018-07-24T06:07:17.157Z,22.06
2018-07-24T06:08:16.593Z,22.06
2018-07-24T06:09:16.608Z,22.06
2018-07-24T06:10:16.710Z,22.06
2018-07-24T06:11:16.430Z,22.06
2018-07-24T06:12:16.660Z,22.04
2018-07-24T06:13:17.731Z,22.06
2018-07-24T06:14:16.568Z,22.06
2018-07-24T06:15:16.952Z,22.06
2018-07-24T06:16:16.623Z,22.06
2018-07-24T06:17:17.057Z,22.06
2018-07-24T06:18:16.613Z,22.06
2018-07-24T06:19:16.874Z,22.05
2018-07-24T06:20:16.426Z,22.05
2018-07-24T06:21:16.930Z,22.06
2018-07-24T06:22:16.520Z,22.06
2018-07-24T06:23:16.497Z,22.06
2018-07-24T06:24:16.614Z,22.06
2018-07-24T06:25:17.131Z,22.06
2018-07-24T06:26:16.710Z,22.06
2018-07-24T06:27:16.733Z,22.06
2018-07-24T06:28:16.640Z,22.06
2018-07-24T06:29:16.943Z,22.06
2018-07-24T06:30:16.414Z,22.06
2018-07-24T06:31:16.564Z,22.06
2018-07-24T06:32:16.610Z,22.06
2018-07-24T06:33:16.412Z,22.06
2018-07-24T06:34:16.708Z,22.06
2018-07-24T06:35:16.510Z,22.06
2018-07-24T06:36:16.838Z,22.06
2018-07-24T06:37:16.668Z,22.06
2018-07-24T06:38:16.297Z,22.06
2018-07-24T06:39:16.396Z,22.05
2018-07-24T06:40:16.484Z,22.06
2018-07-24T06:41:16.410Z,22.06
2018-07-24T06:42:16.449Z,22.06
2018-07-24T06:43:16.823Z,22.06
2018-07-24T06:44:16.959Z,22.06
2018-07-24T06:45:16.461Z,22.06
2018-07-24T06:46:16.610Z,22.06
2018-07-24T06:47:16.450Z,22.06
2018-07-24T06:48:16.691Z,22.06
2018-07-24T06:49:16.773Z,22.05
2018-07-24T06:50:16.366Z,22.05
2018-07-24T06:51:17.586Z,22.02
2018-07-24T06:52:16.526Z,22.04
2018-07-24T06:53:16.438Z,22.05
2018-07-24T06:54:16.816Z,22.05
2018-07-24T06:55:17.086Z,22.05
2018-07-24T06:56:16.385Z,22.05
2018-07-24T06:57:17.042Z,22.04
2018-07-24T06:58:16.986Z,22.05
2018-07-24T06:59:17.500Z,22.05
2018-07-24T07:00:17.565Z,22.05
2018-07-24T07:01:17.299Z,22.05
2018-07-24T07:02:18.161Z,22.05
2018-07-24T07:03:17.442Z,22.06
2018-07-24T07:04:17.272Z,22.06
2018-07-24T07:05:16.398Z,22.06
2018-07-24T07:06:17.107Z,22.06
2018-07-24T07:07:17.102Z,22.06
2018-07-24T07:08:17.091Z,22.06
2018-07-24T07:09:16.415Z,22.06
2018-07-24T07:10:17.368Z,22.06
2018-07-24T07:11:16.818Z,22.06
2018-07-24T07:12:16.886Z,22.06
2018-07-24T07:13:16.882Z,22.06
2018-07-24T07:14:19.253Z,22.06
2018-07-24T07:15:16.284Z,22.06
2018-07-24T07:16:17.604Z,22.06
2018-07-24T07:17:16.416Z,22.06
2018-07-24T07:18:16.366Z,22.06
2018-07-24T07:19:16.512Z,22.06
2018-07-24T07:20:16.906Z,22.06
2018-07-24T07:21:16.584Z,22.06
2018-07-24T07:22:16.700Z,22.06
2018-07-24T07:23:16.803Z,22.06
2018-07-24T07:24:16.434Z,22.06
2018-07-24T07:25:16.354Z,22.06
2018-07-24T07:26:17.417Z,22.06
2018-07-24T07:27:16.747Z,22.06
2018-07-24T07:28:16.537Z,22.06
2018-07-24T07:29:17.279Z,22.06
2018-07-24T07:30:16.707Z,22.06
2018-07-24T07:31:16.363Z,22.06
2018-07-24T07:32:17.226Z,22.06
2018-07-24T07:33:16.547Z,22.06
2018-07-24T07:34:16.537Z,22.06
2018-07-24T07:35:16.590Z,22.06
2018-07-24T07:36:16.437Z,22.06
2018-07-24T07:37:16.382Z,22.06
2018-07-24T07:38:16.416Z,22.06
2018-07-24T07:39:17.653Z,22.06
2018-07-24T07:40:16.568Z,22.06
2018-07-24T07:41:16.522Z,22.06
2018-07-24T07:42:16.612Z,22.06
2018-07-24T07:43:16.597Z,22.06
2018-07-24T07:44:16.410Z,22.06
2018-07-24T07:45:16.862Z,22.06
2018-07-24T07:46:16.469Z,22.06
2018-07-24T07:47:16.383Z,22.06
2018-07-24T07:48:16.410Z,22.06
2018-07-24T07:49:16.601Z,22.06
2018-07-24T07:50:16.193Z,22.06
2018-07-24T07:51:16.511Z,22.06
2018-07-24T07:52:16.560Z,22.06
2018-07-24T07:53:16.562Z,22.06
2018-07-24T07:54:16.421Z,22.05
2018-07-24T07:55:16.675Z,22.06
2018-07-24T07:56:16.519Z,22.06
2018-07-24T07:57:16.420Z,22.06
2018-07-24T07:58:16.875Z,22.06
2018-07-24T07:59:16.402Z,22.06
2018-07-24T08:00:16.530Z,22.06
2018-07-24T08:01:16.450Z,22.06
2018-07-24T08:02:16.351Z,22.06
2018-07-24T08:03:16.421Z,22.06
2018-07-24T08:04:17.391Z,22.05
2018-07-24T08:05:16.708Z,22.06
2018-07-24T08:06:16.510Z,22.05
2018-07-24T08:07:16.310Z,22.05
2018-07-24T08:08:16.375Z,22.06
2018-07-24T08:09:16.672Z,22.05
2018-07-24T08:10:16.451Z,22.06
2018-07-24T08:11:16.424Z,22.06
2018-07-24T08:12:17.074Z,22.05
2018-07-24T08:13:16.813Z,22.05
2018-07-24T08:14:17.463Z,22.05
2018-07-24T08:15:16.662Z,22.05
2018-07-24T08:16:16.467Z,22.05
2018-07-24T08:17:16.371Z,22.05
2018-07-24T08:18:16.468Z,22.05
2018-07-24T08:19:16.597Z,22.05
2018-07-24T08:20:16.726Z,22.05
2018-07-24T08:21:16.569Z,22.05
2018-07-24T08:22:17.276Z,22.05
2018-07-24T08:23:19.289Z,22.05
2018-07-24T08:24:16.691Z,22.05
2018-07-24T08:25:16.511Z,22.05
2018-07-24T08:26:16.620Z,22.05
2018-07-24T08:27:16.645Z,22.05
2018-07-24T08:28:17.588Z,22.05
2018-07-24T08:29:16.526Z,22.05
2018-07-24T08:30:16.335Z,22.05
2018-07-24T08:31:16.635Z,22.05
2018-07-24T08:32:16.462Z,22.05
2018-07-24T08:33:16.512Z,22.05
2018-07-24T08:34:16.520Z,22.05
2018-07-24T08:35:16.389Z,22.05
2018-07-24T08:36:16.725Z,22.05
2018-07-24T08:37:16.684Z,22.05
2018-07-24T08:38:16.579Z,22.04
2018-07-24T08:39:16.446Z,22.05
2018-07-24T08:40:16.420Z,22.05
2018-07-24T08:41:16.504Z,22.05
2018-07-24T08:42:16.721Z,22.05
2018-07-24T08:43:16.748Z,22.05
2018-07-24T08:44:16.386Z,22.04
2018-07-24T08:45:16.664Z,22.04
2018-07-24T08:46:16.465Z,22.04
2018-07-24T08:47:16.595Z,22.05
2018-07-24T08:48:16.558Z,22.05
2018-07-24T08:49:17.307Z,22.04
2018-07-24T08:50:16.304Z,22.04
2018-07-24T08:51:16.326Z,22.04
2018-07-24T08:52:16.819Z,22.04
2018-07-24T08:53:19.660Z,22.04
2018-07-24T08:54:18.555Z,22.05
2018-07-24T08:55:19.643Z,22.04
2018-07-24T08:56:16.433Z,22.04
2018-07-24T08:57:16.339Z,22.04
2018-07-24T08:58:16.733Z,22.04
2018-07-24T08:59:16.387Z,22.04
2018-07-24T09:00:16.512Z,22.04
2018-07-24T09:01:16.556Z,22.04
2018-07-24T09:02:16.300Z,22.04
2018-07-24T09:03:17.288Z,22.04
2018-07-24T09:04:17.295Z,22.04
2018-07-24T09:05:16.609Z,22.04
2018-07-24T09:06:16.490Z,22.04
2018-07-24T09:07:16.455Z,22.04
2018-07-24T09:08:16.552Z,22.04
2018-07-24T09:09:16.483Z,22.04
2018-07-24T09:10:17.344Z,22.05
2018-07-24T09:11:16.319Z,22.04
2018-07-24T09:12:16.444Z,22.04
2018-07-24T09:13:16.560Z,22.04
2018-07-24T09:14:16.436Z,22.04
2018-07-24T09:15:16.582Z,22.04
2018-07-24T09:16:16.919Z,22.04
2018-07-24T09:17:16.343Z,22.04
2018-07-24T09:18:16.535Z,22.04
2018-07-24T09:19:16.368Z,22.04
2018-07-24T09:20:16.336Z,22.04
2018-07-24T09:21:16.406Z,22.04
2018-07-24T09:22:16.628Z,22.04
2018-07-24T09:23:16.395Z,22.04
2018-07-24T09:24:16.598Z,22.04
2018-07-24T09:25:16.374Z,22.04
2018-07-24T09:26:16.455Z,22.04
2018-07-24T09:27:16.517Z,22.04
2018-07-24T09:28:16.508Z,22.04
2018-07-24T09:29:16.455Z,22.04
2018-07-24T09:30:17.487Z,22.04
2018-07-24T09:31:16.520Z,22.04
2018-07-24T09:32:16.731Z,22.04
2018-07-24T09:33:16.595Z,22.04
2018-07-24T09:34:16.620Z,22.04
2018-07-24T09:35:16.341Z,22.04
2018-07-24T09:36:16.611Z,22.04
2018-07-24T09:37:16.492Z,22.04
2018-07-24T09:38:16.464Z,22.04
2018-07-24T09:39:16.642Z,22.04
2018-07-24T09:40:16.651Z,22.04
2018-07-24T09:41:16.614Z,22.04
2018-07-24T09:42:16.425Z,22.04
2018-07-24T09:43:16.655Z,22.04
2018-07-24T09:44:16.659Z,22.04
2018-07-24T09:45:16.735Z,22.03
2018-07-24T09:46:16.369Z,22.04
2018-07-24T09:47:16.370Z,22.04
2018-07-24T09:48:16.626Z,22.03
2018-07-24T09:49:16.551Z,22.03
2018-07-24T09:50:16.475Z,22.03
2018-07-24T09:51:16.551Z,22.03
2018-07-24T09:52:16.398Z,22.03
2018-07-24T09:53:16.313Z,22.03
2018-07-24T09:54:16.774Z,22.03
2018-07-24T09:55:16.758Z,22.03
2018-07-24T09:56:16.398Z,22.03
2018-07-24T09:57:16.440Z,22.03
2018-07-24T09:58:16.373Z,22.03
2018-07-24T09:59:17.324Z,22.03
2018-07-24T10:00:16.365Z,22.03
2018-07-24T10:01:16.427Z,22.03
2018-07-24T10:02:16.624Z,22.03
2018-07-24T10:03:16.558Z,22.03
2018-07-24T10:04:16.585Z,22.03
2018-07-24T10:05:16.893Z,22.03
2018-07-24T10:06:16.579Z,22.03
2018-07-24T10:07:16.460Z,22.03
2018-07-24T10:08:16.494Z,22.03
2018-07-24T10:09:16.569Z,22.03
2018-07-24T10:10:16.452Z,22.03
2018-07-24T10:11:16.364Z,22.03
2018-07-24T10:12:17.363Z,22.03
2018-07-24T10:13:18.121Z,22.03
2018-07-24T10:14:16.280Z,22.03
2018-07-24T10:15:16.741Z,22.03
2018-07-24T10:16:16.372Z,22.02
2018-07-24T10:17:16.396Z,22.03
2018-07-24T10:18:16.365Z,22.02
2018-07-24T10:19:16.644Z,22.03
2018-07-24T10:20:16.709Z,22.03
2018-07-24T10:21:16.663Z,22.03
2018-07-24T10:22:17.004Z,22.03
2018-07-24T10:23:16.297Z,22.03
2018-07-24T10:24:16.588Z,22.02
2018-07-24T10:25:16.609Z,22.03
2018-07-24T10:26:16.432Z,22.02
2018-07-24T10:27:16.506Z,22.03
2018-07-24T10:28:16.563Z,22.03
2018-07-24T10:29:16.332Z,22.03
2018-07-24T10:30:16.956Z,22.02
2018-07-24T10:31:16.600Z,22.03
2018-07-24T10:32:16.319Z,22.02
2018-07-24T10:33:16.393Z,22.03
2018-07-24T10:34:16.514Z,22.02
2018-07-24T10:35:16.513Z,22.02
2018-07-24T10:36:16.412Z,22.02
2018-07-24T10:37:16.454Z,22.02
2018-07-24T10:38:16.466Z,22.03
2018-07-24T10:39:16.178Z,22.02
2018-07-24T10:40:16.272Z,22.03
2018-07-24T10:41:16.343Z,22.03
2018-07-24T10:42:16.421Z,22.02
2018-07-24T10:43:16.282Z,22.03
2018-07-24T10:44:16.383Z,22.03
2018-07-24T10:45:16.627Z,22.02
2018-07-24T10:46:16.310Z,22.02
2018-07-24T10:47:16.347Z,22.02
2018-07-24T10:48:16.517Z,22.02
2018-07-24T10:49:17.402Z,22.02
2018-07-24T10:50:16.417Z,22.02
2018-07-24T10:51:16.464Z,22.02
2018-07-24T10:52:16.611Z,22.02
2018-07-24T10:53:16.375Z,22.02
2018-07-24T10:54:16.563Z,22.02
2018-07-24T10:55:16.623Z,22.02
2018-07-24T10:56:16.619Z,22.02
2018-07-24T10:57:16.231Z,22.03
2018-07-24T10:58:16.654Z,22.02
2018-07-24T10:59:16.212Z,22.02
2018-07-24T11:00:16.639Z,22.03
2018-07-24T11:01:16.383Z,22.02
2018-07-24T11:02:16.683Z,22.02
2018-07-24T11:03:16.459Z,22.02
2018-07-24T11:04:16.539Z,22.02
2018-07-24T11:05:17.350Z,22.02
2018-07-24T11:06:16.483Z,22.02
2018-07-24T11:07:16.498Z,22.02
2018-07-24T11:08:16.252Z,22.02
2018-07-24T11:09:16.419Z,22.03
2018-07-24T11:10:16.462Z,22.02
2018-07-24T11:11:16.725Z,22.03
2018-07-24T11:12:16.350Z,22.02
2018-07-24T11:13:16.349Z,22.03
2018-07-24T11:14:16.387Z,22.03
2018-07-24T11:15:16.350Z,22.03
2018-07-24T11:16:16.457Z,22.02
2018-07-24T11:17:16.273Z,22.02
2018-07-24T11:18:17.417Z,22.02
2018-07-24T11:19:16.367Z,22.02
2018-07-24T11:20:16.570Z,22.02
2018-07-24T11:21:16.652Z,22.02
2018-07-24T11:22:17.690Z,22.02
2018-07-24T11:23:17.699Z,22.02
2018-07-24T11:24:16.294Z,22.03
2018-07-24T11:25:16.514Z,22.02
2018-07-24T11:26:16.308Z,22.02
2018-07-24T11:27:16.628Z,22.02
2018-07-24T11:28:16.772Z,22.03
2018-07-24T11:29:16.373Z,22.03
2018-07-24T11:30:16.410Z,22.02
2018-07-24T11:31:16.478Z,22.02
2018-07-24T11:32:16.567Z,22.02
2018-07-24T11:33:17.088Z,22.02
2018-07-24T11:34:16.527Z,22.02
2018-07-24T11:35:16.484Z,22.02
2018-07-24T11:36:17.280Z,22.02
2018-07-24T11:37:16.747Z,22.02
2018-07-24T11:38:16.647Z,22.03
2018-07-24T11:39:16.558Z,22.02
2018-07-24T11:40:16.281Z,22.02
2018-07-24T11:41:16.224Z,22.02
2018-07-24T11:42:16.439Z,22.02
2018-07-24T11:43:16.405Z,22.03
2018-07-24T11:44:17.344Z,22.03
2018-07-24T11:45:16.658Z,22.03
2018-07-24T11:46:16.344Z,22.03
2018-07-24T11:47:16.480Z,22.03
2018-07-24T11:48:16.432Z,22.03
2018-07-24T11:49:16.816Z,22.02
2018-07-24T11:50:16.615Z,22.03
2018-07-24T11:51:16.621Z,22.03
2018-07-24T11:52:16.533Z,22.03
2018-07-24T11:53:16.253Z,22.03
2018-07-24T11:54:16.359Z,22.03
2018-07-24T11:55:16.772Z,22.03
2018-07-24T11:56:16.432Z,22.03
2018-07-24T11:57:16.378Z,22.03
2018-07-24T11:58:16.693Z,22.03
2018-07-24T11:59:16.353Z,22.03
2018-07-24T12:00:16.289Z,22.03
2018-07-24T12:01:16.372Z,22.02
2018-07-24T12:02:16.249Z,22.03
2018-07-24T12:03:16.734Z,22.02
2018-07-24T12:04:16.735Z,22.03
2018-07-24T12:05:16.566Z,22.03
2018-07-24T12:06:16.649Z,22.03
2018-07-24T12:07:16.334Z,22.03
2018-07-24T12:08:16.326Z,22.03
2018-07-24T12:09:16.320Z,22.03
2018-07-24T12:10:16.372Z,22.03
2018-07-24T12:11:16.258Z,22.03
2018-07-24T12:12:16.664Z,22.03
2018-07-24T12:13:16.372Z,22.03
2018-07-24T12:14:16.792Z,22.03
2018-07-24T12:15:17.180Z,22.02
2018-07-24T12:16:16.566Z,22.03
2018-07-24T12:17:16.367Z,22.03
2018-07-24T12:18:16.485Z,22.03
2018-07-24T12:19:16.435Z,22.03
2018-07-24T12:20:16.267Z,22.03
2018-07-24T12:21:16.534Z,22.03
2018-07-24T12:22:16.736Z,22.03
2018-07-24T12:23:16.393Z,22.03
2018-07-24T12:24:16.379Z,22.03
2018-07-24T12:25:16.485Z,22.02
2018-07-24T12:26:16.468Z,22.03
2018-07-24T12:27:17.685Z,22.03
2018-07-24T12:28:16.415Z,22.03
2018-07-24T12:29:16.246Z,22.03
2018-07-24T12:30:16.372Z,22.03
2018-07-24T12:31:16.328Z,22.03
2018-07-24T12:32:16.585Z,22.03
2018-07-24T12:33:16.447Z,22.03
2018-07-24T12:34:16.294Z,22.03
2018-07-24T12:35:16.456Z,22.03
2018-07-24T12:36:17.310Z,22.03
2018-07-24T12:37:16.299Z,22.02
2018-07-24T12:38:16.216Z,22.03
2018-07-24T12:39:16.382Z,22.02
2018-07-24T12:40:16.490Z,22.03
2018-07-24T12:41:16.335Z,22.02
2018-07-24T12:42:16.460Z,22.03
2018-07-24T12:43:16.359Z,22.02
2018-07-24T12:44:16.680Z,22.03
2018-07-24T12:45:16.325Z,22.03
2018-07-24T12:46:16.378Z,22.03
2018-07-24T12:47:16.220Z,22.03
2018-07-24T12:48:16.354Z,22.02
2018-07-24T12:49:16.477Z,22.03
2018-07-24T12:50:16.787Z,22.03
2018-07-24T12:51:16.542Z,22.03
2018-07-24T12:52:16.410Z,22.02
2018-07-24T12:53:16.521Z,22.03